createdAt,value
2018-02-06T00:01:18.849Z,102017.80
2018-02-06T00:03:44.763Z,102012.96
2018-02-06T00:06:10.569Z,102011.23
2018-02-06T00:08:36.427Z,102007.91
2018-02-06T00:11:02.628Z,102002.23
2018-02-06T00:13:28.406Z,102008.30
2018-02-06T00:15:54.194Z,102002.73
2018-02-06T00:18:19.978Z,102006.41
2018-02-06T00:20:45.756Z,102002.86
2018-02-06T00:23:11.550Z,101999.02
2018-02-06T00:25:37.346Z,101999.72
2018-02-06T00:28:03.110Z,101994.68
2018-02-06T00:30:28.995Z,101990.65
2018-02-06T00:32:54.772Z,101990.11
2018-02-06T00:35:20.565Z,101986.60
2018-02-06T00:37:46.462Z,101979.33
2018-02-06T00:40:12.249Z,101972.08
2018-02-06T00:42:38.017Z,101972.11
2018-02-06T00:45:03.794Z,101968.95
2018-02-06T00:47:29.762Z,101966.92
2018-02-06T00:49:55.550Z,101960.51
2018-02-06T00:52:21.323Z,101960.02
2018-02-06T00:54:47.098Z,101955.32
2018-02-06T00:57:12.915Z,101943.61
2018-02-06T00:59:38.708Z,101943.08
2018-02-06T01:02:11.483Z,101945.08
2018-02-06T01:04:37.291Z,101943.84
2018-02-06T01:07:03.213Z,101938.23
2018-02-06T01:09:36.005Z,101930.59
2018-02-06T01:12:01.797Z,101925.61
2018-02-06T01:14:27.608Z,101928.63
2018-02-06T01:16:53.400Z,101918.04
2018-02-06T01:19:19.170Z,101914.14
2018-02-06T01:21:44.964Z,101907.20
2018-02-06T01:24:10.725Z,101908.91
2018-02-06T01:26:36.494Z,101887.31
2018-02-06T01:29:02.617Z,101901.64
2018-02-06T01:31:28.398Z,101894.00
2018-02-06T01:33:54.174Z,101894.00
2018-02-06T01:36:20.292Z,101889.86
2018-02-06T01:38:46.069Z,101876.73
2018-02-06T01:41:11.858Z,101878.73
2018-02-06T01:43:37.630Z,101880.41
2018-02-06T01:46:03.421Z,101870.42
2018-02-06T01:48:29.194Z,101872.83
2018-02-06T01:50:54.982Z,101866.09
2018-02-06T01:53:20.774Z,101859.92
2018-02-06T01:55:46.600Z,101854.47
2018-02-06T01:58:12.333Z,101857.16
2018-02-06T02:00:38.142Z,101847.83
2018-02-06T02:03:03.917Z,101848.35
2018-02-06T02:05:29.706Z,101842.94
2018-02-06T02:07:55.501Z,101839.45
2018-02-06T02:10:21.291Z,101827.28
2018-02-06T02:12:47.056Z,101829.00
2018-02-06T02:15:12.863Z,101831.12
2018-02-06T02:17:38.692Z,101837.07
2018-02-06T02:20:04.474Z,101825.63
2018-02-06T02:22:30.259Z,101828.17
2018-02-06T02:24:56.074Z,101812.47
2018-02-06T02:27:21.886Z,101805.97
2018-02-06T02:29:47.707Z,101805.14
2018-02-06T02:32:13.604Z,101805.47
2018-02-06T02:34:39.395Z,101807.47
2018-02-06T02:37:05.174Z,101797.41
2018-02-06T02:39:30.974Z,101802.09
2018-02-06T04:38:32.943Z,101706.70
2018-02-06T04:40:59.208Z,101709.44
2018-02-06T04:43:24.991Z,101696.59
2018-02-06T04:45:50.824Z,101696.77
2018-02-06T04:48:16.646Z,101697.98
2018-02-06T04:50:42.458Z,101690.37
2018-02-06T04:53:08.262Z,101685.06
2018-02-06T04:55:34.415Z,101685.41
2018-02-06T04:58:00.928Z,101688.30
2018-02-06T05:00:26.717Z,101683.12
2018-02-06T05:02:52.525Z,101685.05
2018-02-06T05:05:18.320Z,101680.34
2018-02-06T05:07:44.135Z,101682.64
2018-02-06T05:10:09.920Z,101677.97
2018-02-06T05:12:35.704Z,101675.36
2018-02-06T05:15:01.515Z,101667.20
2018-02-06T05:17:27.312Z,101672.61
2018-02-06T05:19:53.201Z,101674.77
2018-02-06T05:22:19.015Z,101668.27
2018-02-06T05:24:44.844Z,101669.19
2018-02-06T05:27:10.603Z,101665.72
2018-02-06T05:29:36.414Z,101663.61
2018-02-06T05:32:02.220Z,101664.34
2018-02-06T05:34:28.030Z,101657.20
2018-02-06T05:36:53.925Z,101652.99
2018-02-06T05:39:19.702Z,101653.92
2018-02-06T05:41:45.487Z,101651.52
2018-02-06T05:44:11.506Z,101645.58
2018-02-06T05:46:37.310Z,101642.28
2018-02-06T05:49:03.099Z,101642.36
2018-02-06T05:51:32.027Z,101636.22
2018-02-06T05:53:57.884Z,101635.48
2018-02-06T05:56:23.679Z,101634.14
2018-02-06T05:58:49.474Z,101627.75
2018-02-06T06:01:15.260Z,101630.91
2018-02-06T06:03:41.044Z,101627.86
2018-02-06T06:06:06.836Z,101624.34
2018-02-06T06:08:32.643Z,101616.62
2018-02-06T06:10:58.678Z,101620.39
2018-02-06T06:13:24.491Z,101616.41
2018-02-06T06:15:50.284Z,101614.60
2018-02-06T06:18:16.077Z,101616.41
2018-02-06T06:20:41.944Z,101613.72
2018-02-06T06:23:07.747Z,101612.45
2018-02-06T06:25:33.551Z,101608.75
2018-02-06T06:27:59.342Z,101606.45
2018-02-06T06:30:25.134Z,101600.36
2018-02-06T06:32:50.967Z,101613.45
2018-02-06T06:35:16.764Z,101611.36
2018-02-06T06:37:42.558Z,101606.42
2018-02-06T06:40:08.372Z,101602.12
2018-02-06T06:42:34.203Z,101599.30
2018-02-06T06:45:00.018Z,101595.53
2018-02-06T06:47:25.812Z,101592.33
2018-02-06T06:49:51.600Z,101595.63
2018-02-06T06:52:17.384Z,101593.03
2018-02-06T06:54:43.410Z,101597.55
2018-02-06T06:57:09.199Z,101593.02
2018-02-06T06:59:35.002Z,101588.50
2018-02-06T07:02:00.802Z,101584.57
2018-02-06T07:04:26.603Z,101581.14
2018-02-06T07:06:52.408Z,101585.05
2018-02-06T07:09:18.201Z,101589.15
2018-02-06T07:11:43.983Z,101582.26
2018-02-06T07:14:09.827Z,101582.66
2018-02-06T07:16:35.617Z,101584.72
2018-02-06T07:19:01.398Z,101580.11
2018-02-06T07:21:27.243Z,101579.89
2018-02-06T07:23:53.035Z,101572.30
2018-02-06T07:26:18.840Z,101570.66
2018-02-06T07:28:44.736Z,101564.92
2018-02-06T07:31:10.518Z,101563.51
2018-02-06T07:33:36.312Z,101565.40
2018-02-06T07:36:02.125Z,101564.27
2018-02-06T07:38:27.923Z,101561.98
2018-02-06T07:40:53.734Z,101562.78
2018-02-06T07:43:19.534Z,101555.63
2018-02-06T07:45:45.319Z,101560.31
2018-02-06T07:48:11.144Z,101559.91
2018-02-06T07:50:36.923Z,101559.75
2018-02-06T07:53:02.707Z,101555.80
2018-02-06T07:55:28.491Z,101552.98
2018-02-06T07:57:54.476Z,101559.70
2018-02-06T08:00:20.315Z,101552.73
2018-02-06T08:02:46.114Z,101551.77
2018-02-06T08:05:11.927Z,101548.56
2018-02-06T08:07:37.730Z,101552.73
2018-02-06T08:10:03.534Z,101550.31
2018-02-06T08:12:29.907Z,101549.39
2018-02-06T08:14:55.706Z,101546.33
2018-02-06T08:17:21.638Z,101551.86
2018-02-06T08:19:47.788Z,101551.24
2018-02-06T08:22:14.537Z,101552.46
2018-02-06T08:24:40.375Z,101554.73
2018-02-06T08:27:06.498Z,101555.31
2018-02-06T08:29:32.295Z,101552.42
2018-02-06T08:31:58.799Z,101550.48
2018-02-06T08:34:24.627Z,101548.60
2018-02-06T08:36:50.714Z,101543.98
2018-02-06T08:39:16.568Z,101544.20
2018-02-06T08:41:42.354Z,101539.34
2018-02-06T08:44:08.156Z,101542.45
2018-02-06T08:46:33.951Z,101535.90
2018-02-06T08:48:59.782Z,101530.40
2018-02-06T08:51:25.834Z,101531.30
2018-02-06T08:53:51.636Z,101523.41
2018-02-06T08:56:17.605Z,101527.01
2018-02-06T08:58:43.384Z,101521.91
2018-02-06T09:01:09.181Z,101520.61
2018-02-06T09:03:35.267Z,101525.27
2018-02-06T09:06:01.371Z,101527.91
2018-02-06T09:08:27.166Z,101521.41
2018-02-06T09:10:52.980Z,101528.73
2018-02-06T09:13:18.818Z,101521.47
2018-02-06T09:15:44.963Z,101516.48
2018-02-06T09:18:10.755Z,101510.18
2018-02-06T09:20:36.538Z,101517.33
2018-02-06T09:23:02.560Z,101510.16
2018-02-06T09:25:28.415Z,101514.00
2018-02-06T09:27:54.242Z,101513.28
2018-02-06T09:30:20.043Z,101513.95
2018-02-06T09:32:46.319Z,101509.91
2018-02-06T09:35:12.122Z,101511.16
2018-02-06T09:37:38.250Z,101517.30
2018-02-06T09:40:04.222Z,101504.22
2018-02-06T09:42:30.302Z,101499.27
2018-02-06T09:44:56.138Z,101498.92
2018-02-06T09:47:22.215Z,101498.16
2018-02-06T09:49:48.092Z,101492.08
2018-02-06T09:52:14.271Z,101489.96
2018-02-06T09:54:40.104Z,101487.27
2018-02-06T09:57:05.882Z,101485.39
2018-02-06T09:59:31.702Z,101483.67
2018-02-06T10:01:57.629Z,101485.96
2018-02-06T10:04:23.530Z,101481.02
2018-02-06T10:06:49.331Z,101479.91
2018-02-06T10:09:15.321Z,101477.81
2018-02-06T10:11:41.546Z,101471.29
2018-02-06T10:14:07.578Z,101467.44
2018-02-06T10:16:33.362Z,101472.62
2018-02-06T10:18:59.188Z,101460.52
2018-02-06T10:21:25.245Z,101458.71
2018-02-06T10:23:51.030Z,101461.81
2018-02-06T10:26:16.846Z,101456.22
2018-02-06T10:28:42.635Z,101454.48
2018-02-06T10:31:08.420Z,101448.58
2018-02-06T10:33:34.240Z,101438.98
2018-02-06T10:36:00.071Z,101438.70
2018-02-06T10:38:25.858Z,101437.11
2018-02-06T10:40:52.255Z,101435.64
2018-02-06T10:43:18.082Z,101428.75
2018-02-06T10:45:43.850Z,101427.59
2018-02-06T10:48:09.637Z,101424.77
2018-02-06T10:50:35.438Z,101424.16
2018-02-06T10:53:01.247Z,101415.97
2018-02-06T10:55:27.899Z,101419.58
2018-02-06T10:57:53.699Z,101415.33
2018-02-06T11:00:19.494Z,101411.72
2018-02-06T11:02:45.325Z,101411.52
2018-02-06T11:05:11.110Z,101404.57
2018-02-06T11:07:36.935Z,101408.28
2018-02-06T11:10:02.772Z,101402.84
2018-02-06T11:12:28.550Z,101398.77
2018-02-06T11:14:54.328Z,101395.13
2018-02-06T11:17:20.125Z,101390.91
2018-02-06T11:19:45.982Z,101387.73
2018-02-06T11:22:12.050Z,101383.78
2018-02-06T11:24:38.284Z,101382.91
2018-02-06T11:27:04.107Z,101380.53
2018-02-06T11:29:29.906Z,101373.14
2018-02-06T11:31:55.761Z,101372.30
2018-02-06T11:34:21.569Z,101366.81
2018-02-06T11:36:47.398Z,101364.30
2018-02-06T11:39:13.182Z,101360.88
2018-02-06T11:41:38.990Z,101356.01
2018-02-06T11:44:05.262Z,101354.34
2018-02-06T11:46:31.050Z,101350.18
2018-02-06T11:48:56.842Z,101352.06
2018-02-06T11:51:22.651Z,101348.38
2018-02-06T11:53:48.434Z,101351.55
2018-02-06T11:56:14.220Z,101351.10
2018-02-06T11:58:40.027Z,101339.42
2018-02-06T12:01:05.847Z,101343.14
2018-02-06T12:03:31.657Z,101342.41
2018-02-06T12:05:57.425Z,101340.80
2018-02-06T12:08:23.208Z,101339.25
2018-02-06T12:10:49.024Z,101328.67
2018-02-06T12:13:14.807Z,101323.39
2018-02-06T12:15:40.583Z,101322.95
2018-02-06T12:18:06.366Z,101321.02
2018-02-06T12:20:32.160Z,101316.77
2018-02-06T12:22:57.966Z,101318.27
2018-02-06T12:25:23.744Z,101312.88
2018-02-06T12:27:49.535Z,101309.95
2018-02-06T12:30:15.331Z,101307.57
2018-02-06T12:32:41.459Z,101301.84
2018-02-06T12:35:07.266Z,101313.70
2018-02-06T12:37:33.055Z,101305.83
2018-02-06T12:39:58.854Z,101296.78
2018-02-06T12:42:24.686Z,101293.92
2018-02-06T12:44:50.492Z,101289.98
2018-02-06T12:47:16.287Z,101296.98
2018-02-06T12:49:42.096Z,101289.12
2018-02-06T12:52:08.116Z,101278.88
2018-02-06T12:54:33.894Z,101283.63
2018-02-06T12:56:59.682Z,101279.02
2018-02-06T12:59:25.474Z,101276.19
2018-02-06T13:01:51.253Z,101274.28
2018-02-06T13:04:17.034Z,101279.19
2018-02-06T13:06:43.038Z,101265.45
2018-02-06T13:09:08.841Z,101266.23
2018-02-06T13:11:34.618Z,101261.61
2018-02-06T13:14:00.820Z,101254.70
2018-02-06T13:16:26.641Z,101252.12
2018-02-06T13:18:52.426Z,101245.13
2018-02-06T13:21:18.336Z,101235.91
2018-02-06T13:23:44.118Z,101230.77
2018-02-06T13:26:09.906Z,101235.96
2018-02-06T13:28:35.990Z,101232.50
2018-02-06T13:31:01.784Z,101230.23
2018-02-06T13:33:27.563Z,101226.01
2018-02-06T13:35:53.362Z,101232.34
2018-02-06T13:38:19.134Z,101235.15
2018-02-06T13:40:44.924Z,101226.25
2018-02-06T13:43:10.705Z,101224.48
2018-02-06T13:45:36.490Z,101217.23
2018-02-06T13:48:02.347Z,101211.20
2018-02-06T13:50:28.482Z,101210.63
2018-02-06T13:52:54.310Z,101202.95
2018-02-06T13:55:20.091Z,101197.02
2018-02-06T13:57:48.792Z,101191.74
2018-02-06T14:00:14.748Z,101186.62
2018-02-06T14:02:40.599Z,101185.97
2018-02-06T14:05:06.399Z,101187.62
2018-02-06T14:07:32.215Z,101182.77
2018-02-06T14:09:58.016Z,101180.14
2018-02-06T14:12:23.828Z,101181.09
2018-02-06T14:14:50.509Z,101176.86
2018-02-06T14:17:16.286Z,101174.67
2018-02-06T14:19:42.079Z,101179.96
2018-02-06T14:22:07.942Z,101169.13
2018-02-06T14:24:33.784Z,101179.77
2018-02-06T14:26:59.569Z,101173.63
2018-02-06T14:29:25.398Z,101174.53
2018-02-06T14:31:51.185Z,101172.00
2018-02-06T14:34:16.986Z,101170.18
2018-02-06T14:36:42.785Z,101161.84
2018-02-06T14:39:08.573Z,101161.30
2018-02-06T14:41:34.369Z,101172.14
2018-02-06T14:44:00.203Z,101169.27
2018-02-06T14:46:25.998Z,101169.00
2018-02-06T14:48:51.906Z,101165.61
2018-02-06T14:51:17.720Z,101171.08
2018-02-06T14:53:43.525Z,101167.33
2018-02-06T14:56:09.380Z,101164.95
2018-02-06T14:58:35.182Z,101167.61
2018-02-06T15:01:00.972Z,101163.91
2018-02-06T15:03:26.774Z,101162.48
2018-02-06T15:05:52.578Z,101159.70
2018-02-06T15:08:18.467Z,101164.77
2018-02-06T15:10:44.235Z,101164.83
2018-02-06T15:13:10.285Z,101167.80
2018-02-06T15:15:36.064Z,101158.58
2018-02-06T15:18:01.855Z,101156.20
2018-02-06T15:20:27.684Z,101153.34
2018-02-06T15:22:53.477Z,101149.97
2018-02-06T15:25:19.282Z,101154.08
2018-02-06T15:27:45.402Z,101152.41
2018-02-06T15:30:11.221Z,101148.63
2018-02-06T15:32:37.004Z,101161.42
2018-02-06T15:35:03.216Z,101153.11
2018-02-06T15:37:29.006Z,101149.69
2018-02-06T15:39:54.807Z,101145.55
2018-02-06T15:42:20.630Z,101143.61
2018-02-06T15:44:46.420Z,101143.08
2018-02-06T15:47:12.214Z,101145.83
2018-02-06T15:49:38.026Z,101138.41
2018-02-06T15:52:03.809Z,101145.84
2018-02-06T15:54:29.596Z,101147.81
2018-02-06T15:56:55.407Z,101157.47
2018-02-06T15:59:21.215Z,101151.77
2018-02-06T16:01:47.006Z,101153.55
2018-02-06T16:04:12.815Z,101153.14
2018-02-06T16:06:38.603Z,101160.05
2018-02-06T16:09:04.409Z,101151.19
2018-02-06T16:11:30.220Z,101152.45
2018-02-06T16:13:56.010Z,101153.23
2018-02-06T16:16:21.788Z,101148.13
2018-02-06T16:18:47.890Z,101150.50
2018-02-06T16:21:13.715Z,101151.42
2018-02-06T16:23:39.505Z,101146.41
2018-02-06T16:26:05.364Z,101143.19
2018-02-06T16:28:31.124Z,101151.94
2018-02-06T16:30:56.908Z,101157.55
2018-02-06T16:33:22.974Z,101153.59
2018-02-06T16:35:48.760Z,101152.20
2018-02-06T16:38:14.550Z,101152.15
2018-02-06T16:40:40.352Z,101161.88
2018-02-06T16:43:06.145Z,101154.28
2018-02-06T16:45:31.937Z,101160.98
2018-02-06T16:47:57.747Z,101161.66
2018-02-06T16:50:23.567Z,101166.09
2018-02-06T16:52:49.395Z,101164.89
2018-02-06T16:55:15.215Z,101168.15
2018-02-06T16:57:41.011Z,101161.33
2018-02-06T17:00:06.868Z,101165.34
2018-02-06T17:02:39.039Z,101164.49
2018-02-06T17:05:04.820Z,101163.64
2018-02-06T17:07:30.603Z,101163.92
2018-02-06T17:09:56.402Z,101162.91
2018-02-06T17:12:22.180Z,101158.16
2018-02-06T17:14:47.978Z,101162.39
2018-02-06T17:17:14.180Z,101160.66
2018-02-06T17:19:39.964Z,101160.14
2018-02-06T17:22:05.841Z,101168.15
2018-02-06T17:24:31.603Z,101166.20
2018-02-06T17:26:57.382Z,101161.90
2018-02-06T17:29:23.173Z,101158.81
2018-02-06T17:31:48.986Z,101163.38
2018-02-06T17:34:14.771Z,101154.24
2018-02-06T17:36:40.554Z,101150.75
2018-02-06T17:39:06.397Z,101155.48
2018-02-06T17:41:32.175Z,101148.72
2018-02-06T17:43:57.963Z,101141.64
2018-02-06T17:46:23.758Z,101145.19
2018-02-06T17:48:49.557Z,101144.12
2018-02-06T17:51:15.343Z,101144.12
2018-02-06T17:53:41.394Z,101150.55
2018-02-06T17:56:07.204Z,101148.37
2018-02-06T17:58:32.989Z,101157.67
2018-02-06T18:00:59.114Z,101152.94
2018-02-06T18:03:24.904Z,101154.33
2018-02-06T18:05:50.682Z,101156.71
2018-02-06T18:08:16.507Z,101152.66
2018-02-06T18:10:42.347Z,101149.05
2018-02-06T18:13:08.137Z,101154.41
2018-02-06T18:15:33.954Z,101150.47
2018-02-06T18:17:59.740Z,101150.83
2018-02-06T18:20:25.518Z,101152.30
2018-02-06T18:22:51.306Z,101149.77
2018-02-06T18:25:17.102Z,101153.53
2018-02-06T18:27:42.895Z,101156.63
2018-02-06T18:30:08.677Z,101157.93
2018-02-06T18:32:34.458Z,101156.80
2018-02-06T18:35:00.470Z,101162.85
2018-02-06T18:37:26.474Z,101161.27
2018-02-06T18:39:52.271Z,101161.50
2018-02-06T18:42:18.075Z,101167.77
2018-02-06T18:44:43.856Z,101168.38
2018-02-06T18:47:09.731Z,101167.85
2018-02-06T18:49:42.512Z,101169.02
2018-02-06T18:52:08.299Z,101156.34
2018-02-06T18:54:34.122Z,101161.43
2018-02-06T18:57:06.880Z,101162.05
2018-02-06T18:59:32.671Z,101168.42
2018-02-06T19:01:58.484Z,101170.62
2018-02-06T19:04:24.275Z,101171.12
2018-02-06T19:06:50.056Z,101167.23
2018-02-06T19:09:15.858Z,101173.81
2018-02-06T19:11:41.643Z,101172.00
2018-02-06T19:14:07.431Z,101167.34
2018-02-06T19:16:33.219Z,101164.33
2018-02-06T19:18:59.056Z,101164.25
2018-02-06T19:21:24.831Z,101166.96
2018-02-06T19:23:50.636Z,101164.44
2018-02-06T19:26:16.465Z,101168.83
2018-02-06T19:28:42.251Z,101166.37
2018-02-06T19:31:08.073Z,101170.92
2018-02-06T19:33:33.831Z,101160.70
2018-02-06T19:35:59.645Z,101161.34
2018-02-06T19:38:25.468Z,101163.52
2018-02-06T19:40:51.558Z,101158.87
2018-02-06T19:43:17.346Z,101160.79
2018-02-06T19:45:43.141Z,101161.87
2018-02-06T19:48:08.967Z,101158.11
2018-02-06T19:50:34.746Z,101164.16
2018-02-06T19:53:00.526Z,101162.25
2018-02-06T19:55:26.320Z,101171.94
2018-02-06T19:57:52.122Z,101177.23
2018-02-06T20:00:17.922Z,101180.89
2018-02-06T20:02:43.723Z,101174.98
2018-02-06T20:05:09.551Z,101183.56
2018-02-06T20:07:35.354Z,101186.16
2018-02-06T20:10:01.151Z,101190.83
2018-02-06T20:12:26.987Z,101185.55
2018-02-06T20:14:52.787Z,101191.47
2018-02-06T20:17:18.582Z,101185.13
2018-02-06T20:19:44.377Z,101186.92
2018-02-06T20:22:10.160Z,101187.37
2018-02-06T20:24:35.946Z,101190.75
2018-02-06T20:27:01.744Z,101195.25
2018-02-06T20:29:27.540Z,101192.30
2018-02-06T20:31:53.314Z,101199.00
2018-02-06T20:34:19.108Z,101198.33
2018-02-06T20:36:44.961Z,101201.83
2018-02-06T20:39:10.743Z,101201.36
2018-02-06T20:41:36.530Z,101202.31
2018-02-06T20:44:02.354Z,101206.05
2018-02-06T20:46:28.130Z,101200.40
2018-02-06T20:48:53.919Z,101193.84
2018-02-06T20:51:19.690Z,101190.81
2018-02-06T20:53:45.507Z,101198.02
2018-02-06T20:56:11.300Z,101189.72
2018-02-06T20:58:37.093Z,101193.03
2018-02-06T21:01:02.934Z,101190.94
2018-02-06T21:03:28.719Z,101188.83
2018-02-06T21:05:54.519Z,101188.28
2018-02-06T21:08:20.354Z,101190.63
2018-02-06T21:10:46.155Z,101187.30
2018-02-06T21:13:11.951Z,101191.23
2018-02-06T21:15:37.744Z,101189.30
2018-02-06T21:18:03.539Z,101183.08
2018-02-06T21:20:29.607Z,101177.11
2018-02-06T21:22:55.402Z,101179.32
2018-02-06T21:25:21.184Z,101181.84
2018-02-06T21:27:46.990Z,101182.14
2018-02-06T21:30:12.790Z,101189.69
2018-02-06T21:32:38.615Z,101185.48
2018-02-06T21:35:04.424Z,101178.48
2018-02-06T21:37:30.211Z,101180.72
2018-02-06T21:39:56.005Z,101184.54
2018-02-06T21:42:21.814Z,101181.92
2018-02-06T21:44:47.609Z,101182.59
2018-02-06T21:47:13.394Z,101182.38
2018-02-06T21:49:39.189Z,101187.17
2018-02-06T21:52:05.022Z,101183.23
2018-02-06T21:54:30.828Z,101180.48
2018-02-06T21:56:56.607Z,101191.86
2018-02-06T21:59:22.402Z,101176.54
2018-02-06T22:01:48.190Z,101185.90
2018-02-06T22:04:13.987Z,101185.92
2018-02-06T22:06:39.790Z,101182.73
2018-02-06T22:09:05.581Z,101174.34
2018-02-06T22:11:31.358Z,101180.44
2018-02-06T22:13:57.150Z,101181.02
2018-02-06T22:16:22.947Z,101179.14
2018-02-06T22:18:48.727Z,101180.21
2018-02-06T22:21:14.511Z,101178.75
2018-02-06T22:23:40.300Z,101186.53
2018-02-06T22:26:06.113Z,101177.44
2018-02-06T22:28:31.890Z,101171.58
2018-02-06T22:30:57.679Z,101179.50
2018-02-06T22:33:23.662Z,101180.81
2018-02-06T22:35:49.454Z,101173.00
2018-02-06T22:38:15.231Z,101168.94
2018-02-06T22:40:41.047Z,101164.42
2018-02-06T22:43:06.850Z,101165.70
2018-02-06T22:45:32.651Z,101165.85
2018-02-06T22:47:58.446Z,101177.41
2018-02-06T22:50:24.262Z,101183.47
2018-02-06T22:52:50.055Z,101181.09
2018-02-06T22:55:15.842Z,101177.75
2018-02-06T22:57:41.664Z,101180.41
2018-02-06T23:00:07.449Z,101181.23
2018-02-06T23:02:33.238Z,101182.20
2018-02-06T23:04:59.039Z,101182.37
2018-02-06T23:07:24.828Z,101187.55
2018-02-06T23:09:50.629Z,101189.98
2018-02-06T23:12:16.463Z,101185.03
2018-02-06T23:14:42.250Z,101188.26
2018-02-06T23:17:08.026Z,101183.35
2018-02-06T23:19:33.843Z,101187.34
2018-02-06T23:21:59.631Z,101180.89
2018-02-06T23:24:25.399Z,101179.53
2018-02-06T23:26:51.219Z,101181.11
2018-02-06T23:29:17.012Z,101187.45
2018-02-06T23:31:42.801Z,101188.27
2018-02-06T23:34:08.616Z,101184.41
2018-02-06T23:36:34.388Z,101185.06
2018-02-06T23:39:00.176Z,101179.72
2018-02-06T23:41:25.978Z,101174.17
2018-02-06T23:43:51.804Z,101166.77
2018-02-06T23:46:17.595Z,101160.02
2018-02-06T23:48:43.399Z,101163.99
2018-02-06T23:51:09.220Z,101158.62
2018-02-06T23:53:35.036Z,101160.50
2018-02-06T23:56:00.883Z,101160.81
2018-02-06T23:58:26.670Z,101168.31
